Time;durP1;ratioP1;P1;durP2;ratioP2;P2;SDS_P1;SDS_P2;PMS_P1;PMS_P2;Temp;Humidity;BMP_temperature;BMP_pressure;BME280_temperature;BME280_humidity;BME280_pressure;Samples;Min_cycle;Max_cycle;Signal;HPM_P1;HPM_P2
2022/05/20 00:01:50;;;;;;;;;;;14.30;99.90;;;;;;5093638;28;19928;-60
2022/05/20 00:04:16;;;;;;;;;;;14.30;99.90;;;;;;5075293;28;19924;-59
2022/05/20 00:06:42;;;;;;;;;;;14.30;99.90;;;;;;5093332;28;19920;-59
2022/05/20 00:09:07;;;;;;;;;;;14.40;99.90;;;;;;5093416;28;20313;-59
2022/05/20 00:11:33;;;;;;;;;;;14.30;99.90;;;;;;5093625;28;19985;-59
2022/05/20 00:13:59;;;;;;;;;;;14.30;99.90;;;;;;5093557;28;19928;-59
2022/05/20 00:16:24;;;;;;;;;;;14.30;99.90;;;;;;5093430;28;19920;-59
2022/05/20 00:18:50;;;;;;;;;;;14.30;99.90;;;;;;5093302;28;19927;-59
2022/05/20 00:21:15;;;;;;;;;;;14.30;99.90;;;;;;5093181;28;19927;-59
2022/05/20 00:23:41;;;;;;;;;;;14.30;99.90;;;;;;5092833;28;19924;-59
2022/05/20 00:26:06;;;;;;;;;;;14.30;99.90;;;;;;5093268;28;19948;-59
2022/05/20 00:28:32;;;;;;;;;;;14.30;99.90;;;;;;5092993;28;20013;-59
2022/05/20 00:31:04;;;;;;;;;;;14.20;99.90;;;;;;5093108;28;20290;-59
2022/05/20 00:33:30;;;;;;;;;;;14.10;99.90;;;;;;5092912;28;19920;-59
2022/05/20 00:35:56;;;;;;;;;;;14.10;99.90;;;;;;5092835;28;19921;-59
2022/05/20 00:38:22;;;;;;;;;;;14.00;99.90;;;;;;5092842;28;19920;-59
2022/05/20 00:40:48;;;;;;;;;;;14.00;99.90;;;;;;5074862;28;19927;-59
2022/05/20 00:43:27;;;;;;;;;;;14.00;99.90;;;;;;5074841;28;19928;-59
2022/05/20 00:46:01;;;;;;;;;;;14.00;99.90;;;;;;5092780;28;20267;-59
2022/05/20 00:48:28;;;;;;;;;;;13.90;99.90;;;;;;5092641;28;20015;-59
2022/05/20 00:51:11;;;;;;;;;;;13.90;99.90;;;;;;5092554;28;19970;-60
2022/05/20 00:53:39;;;;;;;;;;;14.00;99.90;;;;;;5092698;28;19930;-59
2022/05/20 00:56:06;;;;;;;;;;;14.00;99.90;;;;;;5092468;28;20378;-59
2022/05/20 00:58:32;;;;;;;;;;;14.00;99.90;;;;;;5074511;28;19920;-59
2022/05/20 01:00:59;;;;;;;;;;;13.90;99.90;;;;;;5092369;28;19969;-59
2022/05/20 01:03:27;;;;;;;;;;;13.90;99.90;;;;;;5092054;28;19924;-59
2022/05/20 01:05:53;;;;;;;;;;;13.80;99.90;;;;;;5092607;28;20011;-59
2022/05/20 01:08:21;;;;;;;;;;;13.80;99.90;;;;;;5092515;28;19971;-59
2022/05/20 01:10:47;;;;;;;;;;;13.80;99.90;;;;;;5092411;28;20362;-59
2022/05/20 01:13:13;;;;;;;;;;;13.70;99.90;;;;;;5092455;28;20006;-59
2022/05/20 01:15:39;;;;;;;;;;;13.80;99.90;;;;;;5092699;28;20006;-59
2022/05/20 01:18:05;;;;;;;;;;;13.70;99.90;;;;;;5092160;28;20066;-59
2022/05/20 01:20:31;;;;;;;;;;;13.60;99.90;;;;;;5074516;28;19920;-59
2022/05/20 01:23:08;;;;;;;;;;;13.60;99.90;;;;;;5092313;28;19935;-59
2022/05/20 01:25:34;;;;;;;;;;;13.60;99.90;;;;;;5092226;28;19920;-59
2022/05/20 01:28:00;;;;;;;;;;;13.50;99.90;;;;;;5092186;28;19920;-59
2022/05/20 01:30:26;;;;;;;;;;;13.50;99.90;;;;;;5092161;28;19926;-59
2022/05/20 01:32:52;;;;;;;;;;;13.50;99.90;;;;;;5092160;28;19966;-59
2022/05/20 01:35:37;;;;;;;;;;;13.50;99.90;;;;;;5092319;28;19920;-59
2022/05/20 01:38:04;;;;;;;;;;;13.50;99.90;;;;;;5092013;28;19920;-59
2022/05/20 01:40:35;;;;;;;;;;;13.40;99.90;;;;;;5091902;28;19999;-59
2022/05/20 01:43:02;;;;;;;;;;;13.30;99.90;;;;;;5091898;28;19920;-59
2022/05/20 01:45:34;;;;;;;;;;;13.20;99.90;;;;;;5092300;28;19924;-59
2022/05/20 01:48:25;;;;;;;;;;;13.20;99.90;;;;;;5091234;28;20155;-59
2022/05/20 01:50:52;;;;;;;;;;;13.10;99.90;;;;;;4974214;28;19922;-59
2022/05/20 01:53:23;;;;;;;;;;;13.20;99.90;;;;;;4990300;28;19922;-59
2022/05/20 01:56:08;;;;;;;;;;;13.20;99.90;;;;;;4990595;28;20518;-59
2022/05/20 01:58:50;;;;;;;;;;;13.20;99.90;;;;;;4990400;28;20339;-59
2022/05/20 02:01:19;;;;;;;;;;;13.10;99.90;;;;;;4990200;28;19928;-59
2022/05/20 02:03:47;;;;;;;;;;;13.10;99.90;;;;;;4990278;28;20462;-59
2022/05/20 02:06:22;;;;;;;;;;;13.00;99.90;;;;;;4990327;28;19973;-59
2022/05/20 02:08:51;;;;;;;;;;;13.00;99.90;;;;;;4990469;28;19929;-59
2022/05/20 02:11:17;;;;;;;;;;;13.10;99.90;;;;;;4990218;28;19975;-59
2022/05/20 02:13:46;;;;;;;;;;;13.20;99.90;;;;;;4990178;28;19921;-60
2022/05/20 02:16:15;;;;;;;;;;;13.10;99.90;;;;;;4993094;28;19976;-59
2022/05/20 02:18:45;;;;;;;;;;;13.00;99.90;;;;;;4993895;28;19921;-59
2022/05/20 02:21:13;;;;;;;;;;;13.00;99.90;;;;;;4993748;28;19961;-59
2022/05/20 02:23:44;;;;;;;;;;;13.00;99.90;;;;;;4993590;28;19936;-59
2022/05/20 02:26:12;;;;;;;;;;;12.90;99.90;;;;;;4993879;28;20328;-59
2022/05/20 02:28:47;;;;;;;;;;;13.00;99.90;;;;;;5078363;28;19971;-59
2022/05/20 02:31:18;;;;;;;;;;;12.90;99.90;;;;;;5095362;28;20401;-59
2022/05/20 02:33:44;;;;;;;;;;;12.90;99.90;;;;;;5095403;28;19927;-59
2022/05/20 02:36:18;;;;;;;;;;;12.90;99.90;;;;;;5095256;28;19920;-59
2022/05/20 02:38:43;;;;;;;;;;;13.00;99.90;;;;;;5095175;28;20011;-59
2022/05/20 02:41:09;;;;;;;;;;;13.00;99.90;;;;;;5095055;28;20010;-59
2022/05/20 02:43:34;;;;;;;;;;;12.90;99.90;;;;;;5095120;28;19992;-59
2022/05/20 02:46:00;;;;;;;;;;;12.90;99.90;;;;;;5095089;28;20032;-59
2022/05/20 02:48:26;;;;;;;;;;;12.90;99.90;;;;;;5095135;28;19927;-59
2022/05/20 02:50:52;;;;;;;;;;;12.80;99.90;;;;;;5095008;28;19920;-59
2022/05/20 02:53:18;;;;;;;;;;;12.80;99.90;;;;;;5094893;28;19920;-59
2022/05/20 02:55:43;;;;;;;;;;;12.80;99.90;;;;;;5094717;28;20370;-59
2022/05/20 03:04:09;;;;;;;;;;;12.70;99.90;;;;;;5095173;28;20388;-59
2022/05/20 03:06:22;;;;;;;;;;;12.70;99.90;;;;;;5094806;28;19927;-59
2022/05/20 03:08:48;;;;;;;;;;;12.70;99.90;;;;;;5094783;28;20382;-59
2022/05/20 03:11:13;;;;;;;;;;;12.70;99.90;;;;;;5094642;28;19920;-59
2022/05/20 03:13:39;;;;;;;;;;;12.70;99.90;;;;;;5094632;28;19924;-59
2022/05/20 03:16:04;;;;;;;;;;;12.70;99.90;;;;;;5094518;28;19920;-59
2022/05/20 03:18:30;;;;;;;;;;;12.70;99.90;;;;;;5094211;28;19920;-59
2022/05/20 03:20:55;;;;;;;;;;;12.70;99.90;;;;;;5094628;28;19920;-59
2022/05/20 03:23:22;;;;;;;;;;;12.50;99.90;;;;;;5094524;28;20025;-59
2022/05/20 03:25:47;;;;;;;;;;;12.50;99.90;;;;;;5094402;28;19973;-59
2022/05/20 03:28:13;;;;;;;;;;;12.50;99.90;;;;;;5094585;28;20554;-59
2022/05/20 03:30:38;;;;;;;;;;;12.50;99.90;;;;;;5094183;28;19924;-59
2022/05/20 03:33:04;;;;;;;;;;;12.40;99.90;;;;;;5094042;28;20386;-59
2022/05/20 03:35:30;;;;;;;;;;;12.40;99.90;;;;;;5094306;28;19927;-59
2022/05/20 03:37:56;;;;;;;;;;;12.40;99.90;;;;;;5075950;28;19975;-59
2022/05/20 03:40:21;;;;;;;;;;;12.40;99.90;;;;;;5094114;28;19919;-59
2022/05/20 03:42:47;;;;;;;;;;;12.40;99.90;;;;;;5075926;28;19946;-59
2022/05/20 03:45:13;;;;;;;;;;;12.40;99.90;;;;;;5075606;28;19925;-59
2022/05/20 03:47:38;;;;;;;;;;;12.40;99.90;;;;;;5093832;28;20390;-59
2022/05/20 03:50:04;;;;;;;;;;;12.30;99.90;;;;;;5093738;28;19919;-59
2022/05/20 03:52:30;;;;;;;;;;;12.30;99.90;;;;;;5093868;28;20293;-59
2022/05/20 03:54:56;;;;;;;;;;;12.30;99.90;;;;;;5093781;28;20282;-59
2022/05/20 03:57:22;;;;;;;;;;;12.30;99.90;;;;;;5093749;28;20370;-59
2022/05/20 03:59:47;;;;;;;;;;;12.20;99.90;;;;;;5093634;28;19972;-59
2022/05/20 04:02:13;;;;;;;;;;;12.30;99.90;;;;;;5093522;28;19999;-59
2022/05/20 04:04:40;;;;;;;;;;;12.30;99.90;;;;;;5093620;28;19974;-59
2022/05/20 04:07:08;;;;;;;;;;;12.30;99.90;;;;;;5093618;28;19935;-59
2022/05/20 04:09:33;;;;;;;;;;;12.30;99.90;;;;;;5093563;28;19924;-59
2022/05/20 04:12:00;;;;;;;;;;;12.30;99.90;;;;;;5093726;28;20234;-59
2022/05/20 04:14:26;;;;;;;;;;;12.30;99.90;;;;;;5093713;28;19924;-59
2022/05/20 04:16:57;;;;;;;;;;;12.40;99.90;;;;;;5093306;28;20337;-59
2022/05/20 04:19:25;;;;;;;;;;;12.40;99.90;;;;;;5093258;28;20366;-59
2022/05/20 04:21:52;;;;;;;;;;;12.40;99.90;;;;;;5093331;28;20010;-59
2022/05/20 04:24:18;;;;;;;;;;;12.30;99.90;;;;;;5092974;28;20390;-59
2022/05/20 04:26:44;;;;;;;;;;;12.30;99.90;;;;;;5093065;28;20399;-59
2022/05/20 04:29:09;;;;;;;;;;;12.30;99.90;;;;;;5074857;28;19924;-59
2022/05/20 04:31:36;;;;;;;;;;;12.40;99.90;;;;;;5093222;28;19977;-59
2022/05/20 04:34:02;;;;;;;;;;;12.20;99.90;;;;;;5093423;28;19924;-59
2022/05/20 04:36:27;;;;;;;;;;;12.30;99.90;;;;;;5093144;28;20275;-59
2022/05/20 04:38:53;;;;;;;;;;;12.20;99.90;;;;;;5092318;28;19920;-59
2022/05/20 04:46:59;;;;;;;;;;;12.20;99.90;;;;;;5092669;28;19935;-59
2022/05/20 04:49:25;;;;;;;;;;;12.30;99.90;;;;;;5092973;28;20013;-59
2022/05/20 04:51:51;;;;;;;;;;;12.30;99.90;;;;;;5092943;28;19920;-59
2022/05/20 04:57:01;;;;;;;;;;;12.30;99.90;;;;;;5092835;28;19920;-59
2022/05/20 04:59:26;;;;;;;;;;;12.40;99.90;;;;;;5092725;28;20065;-59
2022/05/20 05:01:52;;;;;;;;;;;12.50;99.90;;;;;;5092726;28;20039;-59
2022/05/20 05:04:18;;;;;;;;;;;12.60;99.90;;;;;;5092476;28;20289;-59
2022/05/20 05:06:44;;;;;;;;;;;12.70;99.90;;;;;;5092462;28;19921;-59
2022/05/20 05:09:10;;;;;;;;;;;12.70;99.90;;;;;;5092333;28;19924;-59
2022/05/20 05:11:39;;;;;;;;;;;12.80;99.90;;;;;;5092664;28;19927;-59
2022/05/20 05:14:09;;;;;;;;;;;12.80;99.90;;;;;;5092367;28;19920;-59
2022/05/20 05:16:35;;;;;;;;;;;12.90;99.90;;;;;;5092610;28;19920;-59
2022/05/20 05:19:00;;;;;;;;;;;12.90;99.90;;;;;;5092362;28;19920;-59
2022/05/20 05:21:26;;;;;;;;;;;13.00;99.90;;;;;;5092351;28;19920;-59
2022/05/20 05:23:53;;;;;;;;;;;13.00;99.90;;;;;;5092281;28;19931;-59
2022/05/20 05:26:20;;;;;;;;;;;13.10;99.90;;;;;;5092378;28;19920;-59
2022/05/20 05:28:45;;;;;;;;;;;13.10;99.90;;;;;;5092440;28;19927;-59
2022/05/20 05:31:11;;;;;;;;;;;13.10;99.90;;;;;;5074076;28;19920;-59
2022/05/20 05:33:36;;;;;;;;;;;13.20;99.90;;;;;;5092234;28;20302;-60
2022/05/20 05:36:02;;;;;;;;;;;13.40;99.90;;;;;;5092016;28;20369;-59
2022/05/20 05:38:27;;;;;;;;;;;13.40;99.90;;;;;;5092105;28;19920;-59
2022/05/20 05:40:53;;;;;;;;;;;13.40;99.90;;;;;;5092531;28;19931;-59
2022/05/20 05:43:18;;;;;;;;;;;13.50;99.90;;;;;;5092300;28;19939;-59
2022/05/20 05:45:44;;;;;;;;;;;13.60;99.90;;;;;;5091760;28;19931;-59
2022/05/20 05:48:10;;;;;;;;;;;13.60;99.90;;;;;;5092000;28;19927;-59
2022/05/20 05:50:37;;;;;;;;;;;13.60;99.90;;;;;;5094146;28;19928;-59
2022/05/20 05:53:07;;;;;;;;;;;13.70;99.90;;;;;;5096419;28;20003;-59
2022/05/20 05:55:33;;;;;;;;;;;13.80;99.90;;;;;;5096158;28;19920;-59
2022/05/20 05:57:58;;;;;;;;;;;13.90;99.90;;;;;;5096076;28;20293;-59
2022/05/20 06:00:24;;;;;;;;;;;14.00;99.90;;;;;;5095996;28;19920;-59
2022/05/20 06:02:49;;;;;;;;;;;14.10;99.90;;;;;;5095798;28;20020;-59
2022/05/20 06:05:15;;;;;;;;;;;14.20;99.90;;;;;;5095708;28;19924;-60
2022/05/20 06:07:41;;;;;;;;;;;14.30;99.90;;;;;;5095708;28;19920;-60
2022/05/20 06:10:07;;;;;;;;;;;14.30;99.90;;;;;;5095935;28;20086;-60
2022/05/20 06:12:33;;;;;;;;;;;14.40;99.90;;;;;;5095750;28;19920;-59
2022/05/20 06:15:06;;;;;;;;;;;14.60;99.90;;;;;;5095513;28;20010;-59
2022/05/20 06:17:32;;;;;;;;;;;14.60;99.90;;;;;;5095450;28;19967;-59
2022/05/20 06:19:58;;;;;;;;;;;14.70;99.90;;;;;;5095470;28;19966;-60
2022/05/20 06:22:23;;;;;;;;;;;14.90;99.90;;;;;;5095676;28;19927;-59
2022/05/20 06:24:49;;;;;;;;;;;15.00;99.90;;;;;;5095578;28;20343;-61
2022/05/20 06:27:14;;;;;;;;;;;15.00;99.90;;;;;;5095326;28;20445;-61
2022/05/20 06:29:40;;;;;;;;;;;15.30;99.90;;;;;;5095306;28;19920;-61
2022/05/20 06:32:06;;;;;;;;;;;15.60;99.90;;;;;;5095348;28;19972;-60
2022/05/20 06:39:48;;;;;;;;;;;15.70;99.90;;;;;;5095180;28;19920;-61
2022/05/20 06:40:06;;;;;;;;;;;16.30;99.90;;;;;;5095247;28;20293;-61
2022/05/20 06:42:31;;;;;;;;;;;16.20;99.90;;;;;;5094984;28;20394;-60
2022/05/20 06:44:57;;;;;;;;;;;16.20;99.90;;;;;;5076375;28;19954;-60
2022/05/20 06:47:22;;;;;;;;;;;16.20;99.90;;;;;;5095155;28;19928;-60
2022/05/20 06:49:48;;;;;;;;;;;16.30;99.90;;;;;;5095275;28;19920;-60
2022/05/20 06:52:13;;;;;;;;;;;16.20;99.90;;;;;;5095060;28;19920;-60
2022/05/20 06:54:39;;;;;;;;;;;16.20;99.90;;;;;;5094942;28;19973;-60
2022/05/20 06:57:05;;;;;;;;;;;16.20;99.90;;;;;;5094831;28;20011;-61
2022/05/20 06:59:30;;;;;;;;;;;16.20;99.90;;;;;;5094622;28;19920;-60
2022/05/20 07:02:00;;;;;;;;;;;16.10;99.90;;;;;;5075394;28;19955;-61
2022/05/20 07:04:29;;;;;;;;;;;16.00;99.90;;;;;;5076476;28;19925;-59
2022/05/20 07:06:58;;;;;;;;;;;16.20;99.90;;;;;;5094753;28;20352;-58
2022/05/20 07:09:23;;;;;;;;;;;16.30;99.90;;;;;;5095083;28;19927;-58
2022/05/20 07:11:49;;;;;;;;;;;16.40;99.90;;;;;;5094362;28;19920;-59
2022/05/20 07:14:14;;;;;;;;;;;16.50;99.90;;;;;;5094621;28;19920;-58
2022/05/20 07:16:40;;;;;;;;;;;16.80;99.90;;;;;;5094580;28;20278;-58
2022/05/20 07:19:05;;;;;;;;;;;17.10;99.90;;;;;;5094418;28;19920;-58
2022/05/20 07:21:31;;;;;;;;;;;17.20;99.90;;;;;;5094515;28;20294;-58
2022/05/20 07:23:57;;;;;;;;;;;17.20;99.90;;;;;;5094165;28;20443;-58
2022/05/20 07:26:22;;;;;;;;;;;17.00;99.90;;;;;;5094290;28;20329;-58
2022/05/20 07:28:48;;;;;;;;;;;17.20;99.90;;;;;;5094097;28;19920;-58
2022/05/20 07:31:14;;;;;;;;;;;17.00;99.90;;;;;;5094351;28;19970;-58
2022/05/20 07:33:40;;;;;;;;;;;16.70;99.90;;;;;;5094324;28;19973;-58
2022/05/20 07:36:06;;;;;;;;;;;16.70;99.90;;;;;;5076070;28;19920;-58
2022/05/20 07:38:32;;;;;;;;;;;16.80;99.90;;;;;;5094008;28;19926;-58
2022/05/20 07:40:58;;;;;;;;;;;17.10;99.90;;;;;;5093930;28;20014;-62
2022/05/20 07:43:24;;;;;;;;;;;17.30;99.90;;;;;;5093999;28;19958;-62
2022/05/20 07:45:50;;;;;;;;;;;17.60;99.90;;;;;;5094136;28;19988;-62
2022/05/20 07:48:16;;;;;;;;;;;17.80;99.90;;;;;;5093998;28;19920;-63
2022/05/20 07:50:46;;;;;;;;;;;17.60;99.90;;;;;;5094022;28;19959;-63
2022/05/20 07:53:21;;;;;;;;;;;17.50;99.90;;;;;;5093792;28;20400;-64
2022/05/20 07:55:53;;;;;;;;;;;17.60;99.90;;;;;;5093561;28;19986;-63
2022/05/20 07:58:20;;;;;;;;;;;17.50;99.90;;;;;;5075302;28;19919;-63
2022/05/20 08:00:46;;;;;;;;;;;17.80;99.90;;;;;;5093512;28;20393;-64
2022/05/20 08:03:13;;;;;;;;;;;18.00;99.90;;;;;;5093496;28;19920;-63
2022/05/20 08:05:39;;;;;;;;;;;18.00;99.90;;;;;;5075290;28;19924;-63
2022/05/20 08:08:06;;;;;;;;;;;17.90;99.90;;;;;;5093442;28;19920;-63
2022/05/20 08:10:33;;;;;;;;;;;17.80;99.90;;;;;;5093472;28;19921;-63
2022/05/20 08:12:59;;;;;;;;;;;18.00;99.90;;;;;;5092447;28;20396;-63
2022/05/20 08:15:25;;;;;;;;;;;17.90;99.90;;;;;;5093385;28;19920;-64
2022/05/20 08:17:51;;;;;;;;;;;17.90;99.90;;;;;;5093316;28;19920;-64
2022/05/20 08:20:22;;;;;;;;;;;17.70;99.90;;;;;;5093179;28;20023;-63
2022/05/20 08:22:48;;;;;;;;;;;17.80;99.90;;;;;;5093191;28;19921;-63
2022/05/20 08:25:14;;;;;;;;;;;18.20;99.90;;;;;;5093042;28;20503;-63
2022/05/20 08:27:39;;;;;;;;;;;18.80;99.90;;;;;;5093195;28;20011;-63
2022/05/20 08:30:16;;;;;;;;;;;18.70;99.90;;;;;;5074220;28;19943;-63
2022/05/20 08:32:41;;;;;;;;;;;18.80;99.90;;;;;;5092977;28;20383;-63
2022/05/20 08:35:07;;;;;;;;;;;19.20;99.90;;;;;;5092929;28;20019;-63
2022/05/20 08:37:36;;;;;;;;;;;19.30;99.90;;;;;;5092807;28;19974;-63
2022/05/20 08:40:03;;;;;;;;;;;19.10;99.90;;;;;;5074692;28;19951;-64
2022/05/20 08:42:30;;;;;;;;;;;19.00;99.90;;;;;;5092750;28;19920;-63
2022/05/20 08:44:56;;;;;;;;;;;18.90;99.90;;;;;;5092634;28;19968;-64
2022/05/20 08:47:32;;;;;;;;;;;18.80;99.90;;;;;;5074469;28;19924;-64
2022/05/20 08:49:59;;;;;;;;;;;19.30;99.90;;;;;;5092661;28;19924;-64
2022/05/20 08:52:26;;;;;;;;;;;19.70;99.90;;;;;;5092812;28;20293;-64
2022/05/20 08:54:51;;;;;;;;;;;20.20;99.90;;;;;;5092747;28;19927;-64
2022/05/20 08:57:17;;;;;;;;;;;20.50;99.90;;;;;;5092672;28;19924;-65
2022/05/20 08:59:43;;;;;;;;;;;20.80;99.90;;;;;;5092431;28;20406;-64
2022/05/20 09:02:08;;;;;;;;;;;20.80;99.90;;;;;;5092824;28;19977;-64
2022/05/20 09:04:34;;;;;;;;;;;20.40;99.90;;;;;;5092546;28;20009;-63
2022/05/20 09:07:10;;;;;;;;;;;20.70;99.90;;;;;;5088723;28;20279;-58
2022/05/20 09:09:47;;;;;;;;;;;20.70;99.90;;;;;;5090693;28;19924;-59
2022/05/20 09:12:25;;;;;;;;;;;20.70;99.90;;;;;;5089272;28;20405;-60
2022/05/20 09:17:46;;;;;;;;;;;20.50;99.90;;;;;;5092045;28;19920;-59
2022/05/20 09:20:14;;;;;;;;;;;20.30;99.90;;;;;;5092311;28;19920;-59
2022/05/20 09:22:40;;;;;;;;;;;19.90;99.90;;;;;;5092339;28;19927;-59
2022/05/20 09:25:12;;;;;;;;;;;19.90;99.90;;;;;;5091977;28;20374;-59
2022/05/20 09:27:37;;;;;;;;;;;20.10;99.90;;;;;;5092452;28;19963;-59
2022/05/20 09:30:05;;;;;;;;;;;19.80;99.90;;;;;;5092305;28;20393;-59
2022/05/20 09:32:33;;;;;;;;;;;19.80;99.90;;;;;;5092530;28;20073;-60
2022/05/20 09:35:01;;;;;;;;;;;20.10;99.90;;;;;;5074355;28;19927;-60
2022/05/20 09:37:29;;;;;;;;;;;20.30;99.90;;;;;;5092057;28;19943;-58
2022/05/20 09:39:54;;;;;;;;;;;20.30;99.90;;;;;;5092178;28;20398;-59
2022/05/20 09:42:27;;;;;;;;;;;20.20;99.90;;;;;;5092164;28;19985;-59
2022/05/20 09:44:54;;;;;;;;;;;20.30;99.90;;;;;;5092060;28;19925;-59
2022/05/20 09:47:23;;;;;;;;;;;20.20;99.90;;;;;;5091929;28;19930;-59
2022/05/20 09:49:57;;;;;;;;;;;20.20;99.90;;;;;;5092022;28;20017;-59
2022/05/20 09:52:26;;;;;;;;;;;20.20;99.90;;;;;;5091900;28;19927;-59
2022/05/20 09:55:14;;;;;;;;;;;20.20;99.90;;;;;;5092071;28;19943;-59
2022/05/20 09:57:46;;;;;;;;;;;20.30;99.90;;;;;;5009933;28;19929;-59
2022/05/20 10:00:17;;;;;;;;;;;20.10;99.90;;;;;;5010015;28;19922;-59
2022/05/20 10:02:56;;;;;;;;;;;20.00;99.90;;;;;;5009930;28;20009;-60
2022/05/20 10:05:26;;;;;;;;;;;19.80;99.90;;;;;;5009711;28;20012;-59
2022/05/20 10:08:11;;;;;;;;;;;19.70;99.90;;;;;;5009804;28;20011;-60
2022/05/20 10:10:37;;;;;;;;;;;19.80;99.90;;;;;;4990201;28;19926;-59
2022/05/20 10:13:04;;;;;;;;;;;19.80;99.90;;;;;;4990245;28;19929;-59
2022/05/20 10:15:50;;;;;;;;;;;19.60;99.90;;;;;;4990168;28;20292;-59
2022/05/20 10:18:33;;;;;;;;;;;19.40;99.90;;;;;;4990033;28;20038;-59
2022/05/20 10:21:08;;;;;;;;;;;19.40;99.90;;;;;;4990107;28;19922;-59
2022/05/20 10:23:39;;;;;;;;;;;19.50;99.90;;;;;;4990032;28;19932;-59
2022/05/20 10:26:19;;;;;;;;;;;19.30;99.90;;;;;;4990119;28;19922;-59
2022/05/20 10:34:18;;;;;;;;;;;19.60;99.90;;;;;;5003713;28;20007;-58
2022/05/20 10:36:44;;;;;;;;;;;19.60;99.90;;;;;;5031546;28;19922;-58
2022/05/20 10:39:10;;;;;;;;;;;19.50;99.90;;;;;;5032789;28;20363;-58
2022/05/20 10:41:38;;;;;;;;;;;19.60;99.90;;;;;;5032793;28;20346;-58
2022/05/20 10:49:46;;;;;;;;;;;19.50;99.90;;;;;;5094862;28;19955;-59
2022/05/20 10:52:12;;;;;;;;;;;19.50;99.90;;;;;;5095026;28;19927;-59
2022/05/20 10:54:42;;;;;;;;;;;19.60;99.90;;;;;;5094921;28;20278;-59
2022/05/20 10:57:10;;;;;;;;;;;19.60;99.90;;;;;;5094821;28;19980;-59
2022/05/20 10:59:52;;;;;;;;;;;19.70;99.90;;;;;;5094928;28;20298;-59
2022/05/20 11:02:23;;;;;;;;;;;19.80;99.90;;;;;;5094931;28;19924;-59
2022/05/20 11:04:58;;;;;;;;;;;19.70;99.90;;;;;;5094500;28;20374;-59
2022/05/20 11:07:40;;;;;;;;;;;19.90;99.90;;;;;;5094650;28;19920;-59
2022/05/20 11:10:24;;;;;;;;;;;19.80;99.90;;;;;;5094785;28;20072;-59
2022/05/20 11:12:49;;;;;;;;;;;19.90;99.90;;;;;;5094608;28;20381;-59
2022/05/20 11:15:21;;;;;;;;;;;19.80;99.90;;;;;;5094545;28;19978;-59
2022/05/20 11:17:56;;;;;;;;;;;19.80;99.90;;;;;;5076257;28;19972;-59
2022/05/20 11:20:21;;;;;;;;;;;19.80;99.90;;;;;;5094817;28;19966;-60
2022/05/20 11:22:53;;;;;;;;;;;19.70;99.90;;;;;;5094567;28;19924;-58
2022/05/20 11:25:43;;;;;;;;;;;19.90;99.90;;;;;;5094325;28;19931;-59
2022/05/20 11:28:08;;;;;;;;;;;20.10;99.90;;;;;;5083865;28;19927;-60
2022/05/20 11:30:37;;;;;;;;;;;20.20;99.90;;;;;;5094160;28;19920;-60
2022/05/20 11:33:10;;;;;;;;;;;20.30;99.90;;;;;;5094442;28;20036;-59
2022/05/20 11:35:37;;;;;;;;;;;20.30;99.90;;;;;;5094038;28;19927;-60
2022/05/20 11:38:02;;;;;;;;;;;20.50;99.90;;;;;;5094021;28;20339;-59
2022/05/20 11:40:36;;;;;;;;;;;20.50;99.90;;;;;;5093942;28;20007;-59
2022/05/20 11:43:01;;;;;;;;;;;20.50;99.90;;;;;;5094227;28;20351;-59
2022/05/20 11:45:41;;;;;;;;;;;20.50;99.90;;;;;;5093921;28;19978;-65
2022/05/20 11:48:12;;;;;;;;;;;20.60;99.90;;;;;;5093743;28;20391;-65
2022/05/20 11:50:44;;;;;;;;;;;20.70;99.90;;;;;;5075496;28;19927;-65
2022/05/20 11:53:14;;;;;;;;;;;20.60;99.90;;;;;;5075519;28;19927;-65
2022/05/20 11:55:51;;;;;;;;;;;20.90;99.90;;;;;;5093941;28;19926;-66
2022/05/20 11:58:20;;;;;;;;;;;20.80;99.90;;;;;;5093808;28;19927;-65
2022/05/20 12:00:47;;;;;;;;;;;20.90;99.90;;;;;;5093548;28;19928;-65
2022/05/20 12:03:15;;;;;;;;;;;20.90;99.90;;;;;;5093463;28;19920;-66
2022/05/20 12:05:43;;;;;;;;;;;20.70;99.90;;;;;;5093465;28;19924;-66
2022/05/20 12:08:28;;;;;;;;;;;20.90;99.90;;;;;;5093583;28;19927;-65
2022/05/20 12:10:54;;;;;;;;;;;20.80;99.90;;;;;;5093526;28;19973;-66
2022/05/20 12:13:24;;;;;;;;;;;20.80;99.90;;;;;;5075257;28;19920;-66
2022/05/20 12:16:10;;;;;;;;;;;20.80;99.90;;;;;;5074782;28;19920;-66
2022/05/20 12:24:42;;;;;;;;;;;20.80;99.90;;;;;;4991339;28;19933;-63
2022/05/20 12:27:10;;;;;;;;;;;20.70;99.90;;;;;;4991500;28;19928;-65
2022/05/20 12:29:35;;;;;;;;;;;20.70;99.90;;;;;;4991436;28;19976;-65
2022/05/20 12:32:29;;;;;;;;;;;20.70;99.90;;;;;;4991340;28;19921;-65
2022/05/20 12:35:03;;;;;;;;;;;20.80;99.90;;;;;;4933281;29;19955;-65
2022/05/20 12:37:40;;;;;;;;;;;20.90;99.90;;;;;;4933460;29;19923;-67
2022/05/20 12:40:15;;;;;;;;;;;21.00;99.90;;;;;;4917511;29;20344;-64
2022/05/20 12:42:45;;;;;;;;;;;21.10;99.90;;;;;;4933409;29;19930;-65
2022/05/20 12:45:10;;;;;;;;;;;21.10;99.90;;;;;;4933001;29;19923;-65
2022/05/20 12:47:37;;;;;;;;;;;21.10;99.90;;;;;;4933180;29;20025;-64
2022/05/20 12:50:20;;;;;;;;;;;21.10;99.90;;;;;;4933262;29;20039;-65
2022/05/20 12:52:50;;;;;;;;;;;21.10;99.90;;;;;;4933352;29;20019;-65
2022/05/20 12:55:20;;;;;;;;;;;20.80;99.90;;;;;;4957841;28;19925;-65
2022/05/20 12:57:48;;;;;;;;;;;20.80;99.90;;;;;;4990787;28;20045;-65
2022/05/20 13:00:14;;;;;;;;;;;20.80;99.90;;;;;;4990458;28;20411;-65
2022/05/20 13:02:42;;;;;;;;;;;20.90;99.90;;;;;;4990944;28;19922;-65
2022/05/20 13:05:16;;;;;;;;;;;20.80;99.90;;;;;;4958259;28;19973;-64
2022/05/20 13:07:42;;;;;;;;;;;20.90;99.90;;;;;;4990846;28;19922;-65
2022/05/20 13:10:23;;;;;;;;;;;20.90;99.90;;;;;;4990873;28;19922;-65
2022/05/20 13:12:49;;;;;;;;;;;20.90;99.90;;;;;;5089797;28;20377;-65
2022/05/20 13:15:19;;;;;;;;;;;20.90;99.90;;;;;;5092375;28;20332;-65
2022/05/20 13:17:57;;;;;;;;;;;20.80;99.90;;;;;;5092503;28;19920;-63
2022/05/20 13:20:23;;;;;;;;;;;20.70;99.90;;;;;;5092330;28;19923;-64
2022/05/20 13:22:50;;;;;;;;;;;20.50;99.90;;;;;;5092213;28;19920;-63
2022/05/20 13:25:16;;;;;;;;;;;20.30;99.90;;;;;;5092218;28;19931;-64
2022/05/20 13:27:46;;;;;;;;;;;20.20;99.90;;;;;;5092425;28;20274;-64
2022/05/20 13:30:25;;;;;;;;;;;20.20;99.90;;;;;;5092205;28;20418;-63
2022/05/20 13:32:51;;;;;;;;;;;20.10;99.90;;;;;;5092112;28;19920;-64
2022/05/20 13:35:17;;;;;;;;;;;20.00;99.90;;;;;;5092004;28;19920;-64
2022/05/20 13:37:48;;;;;;;;;;;20.10;99.90;;;;;;5092357;28;20327;-63
2022/05/20 13:40:22;;;;;;;;;;;20.10;99.90;;;;;;5092007;28;20371;-63
2022/05/20 13:42:52;;;;;;;;;;;20.10;99.90;;;;;;5092112;28;19978;-63
2022/05/20 13:45:18;;;;;;;;;;;20.00;99.90;;;;;;5092155;28;19944;-62
2022/05/20 13:50:29;;;;;;;;;;;19.80;99.90;;;;;;5092286;28;19920;-63
2022/05/20 13:52:57;;;;;;;;;;;19.80;99.90;;;;;;5092053;28;19920;-62
2022/05/20 13:55:27;;;;;;;;;;;19.70;99.90;;;;;;5092071;28;19924;-62
2022/05/20 13:57:53;;;;;;;;;;;19.60;99.90;;;;;;5092114;28;19924;-62
2022/05/20 14:00:25;;;;;;;;;;;19.50;99.90;;;;;;5073577;28;20385;-62
2022/05/20 14:02:52;;;;;;;;;;;19.30;99.90;;;;;;5092084;28;20007;-63
2022/05/20 14:05:23;;;;;;;;;;;19.30;99.90;;;;;;5091940;28;19972;-63
2022/05/20 14:07:50;;;;;;;;;;;19.10;99.90;;;;;;5092000;28;19926;-63
2022/05/20 14:10:21;;;;;;;;;;;19.10;99.90;;;;;;5091853;28;19989;-62
2022/05/20 14:12:50;;;;;;;;;;;18.90;99.90;;;;;;5077592;28;19920;-63
2022/05/20 14:15:28;;;;;;;;;;;18.90;99.90;;;;;;5095975;28;20270;-63
2022/05/20 14:17:55;;;;;;;;;;;18.80;99.90;;;;;;5095879;28;19920;-63
2022/05/20 14:20:21;;;;;;;;;;;18.70;99.90;;;;;;5095451;28;19920;-62
2022/05/20 14:22:48;;;;;;;;;;;18.60;99.90;;;;;;5095625;28;19952;-62
2022/05/20 14:25:24;;;;;;;;;;;18.60;99.90;;;;;;5095293;28;20286;-61
2022/05/20 14:27:51;;;;;;;;;;;18.50;99.90;;;;;;5095675;28;19977;-62
2022/05/20 14:30:17;;;;;;;;;;;18.50;99.90;;;;;;5095494;28;19920;-63
2022/05/20 14:32:42;;;;;;;;;;;18.40;99.90;;;;;;5095349;28;19920;-62
2022/05/20 14:35:08;;;;;;;;;;;18.20;99.90;;;;;;5095312;28;20024;-62
2022/05/20 14:37:33;;;;;;;;;;;18.10;99.90;;;;;;5077057;28;19927;-62
2022/05/20 14:40:08;;;;;;;;;;;18.00;99.90;;;;;;5076683;28;20018;-63
2022/05/20 14:42:42;;;;;;;;;;;18.00;99.90;;;;;;5095298;28;19927;-62
2022/05/20 14:45:31;;;;;;;;;;;18.00;99.90;;;;;;5095340;28;20242;-62
2022/05/20 14:48:09;;;;;;;;;;;18.00;99.90;;;;;;5094977;28;19928;-62
2022/05/20 14:50:35;;;;;;;;;;;17.90;99.90;;;;;;5095306;28;19927;-62
2022/05/20 14:53:06;;;;;;;;;;;17.80;99.90;;;;;;5094824;28;19920;-62
2022/05/20 14:55:41;;;;;;;;;;;17.90;99.90;;;;;;5094839;28;20405;-62
2022/05/20 14:58:25;;;;;;;;;;;17.80;99.90;;;;;;5095155;28;19924;-62
2022/05/20 15:00:59;;;;;;;;;;;17.80;99.90;;;;;;5094657;28;19927;-62
2022/05/20 15:03:26;;;;;;;;;;;17.80;99.90;;;;;;5094944;28;19920;-62
2022/05/20 15:05:53;;;;;;;;;;;17.90;99.90;;;;;;5094773;28;19946;-62